AirNav   Jet Aviation Boston
 
 1535 users online  

7M6 Paris Municipal Airport
Paris (Subiaco), Arkansas, USA

GOING TO PARIS (SUBIACO)?


FAA INFORMATION EFFECTIVE 24 MAY 2018

Location

FAA Identifier: 7M6
Lat/Long: 35-17-56.8150N / 093-40-53.8095W
35-17.946917N / 093-40.896825W
35.2991153 / -93.6816137
(estimated)
Elevation: 430 ft. / 131 m (estimated)
Variation: 05E (1985)
From city: 2 miles E of central business district of the associated city
Time zone: UTC -5 (UTC -6 during Standard Time)
Zip code: 72855

Airport Operations

Airport use: Open to the public
Control tower: no
ARTCC: MEMPHIS CENTER
FSS: JONESBORO FLIGHT SERVICE STATION
NOTAMs facility: JBR (NOTAM-D service available)
Attendance: UNATNDD
Wind indicator: lighted
Segmented circle: no
Lights: SS-SR
Beacon: white-green (lighted land airport)
Operates sunset to sunrise.

Airport Communications

CTAF: 122.9

Nearby radio navigation aids

VOR radial/distance  VOR name  Freq  Var
FSMr094/29.4FORT SMITH VORTAC110.4007E

 
NDB name  Hdg/Dist  Freq  Var  ID
RUSSELLVILLE272/28.937903ERUE .-. ..- .

Airport Services

Fuel available: 100LL
PRIOR ARRANGEMENTS REQUIRED FOR FUEL CTC 479-963-2450.
Parking: tiedowns
Bottled oxygen: NONE
Bulk oxygen: NONE

Runway Information

Runway 3/21

Dimensions: 2710 x 60 ft. / 826 x 18 m
Surface: asphalt, in fair condition
Weight bearing capacity: 
Single wheel: 10.0
Runway edge lights: medium intensity
RUNWAY 3  RUNWAY 21
Latitude: 35-17.773117N35-18.120717N
Longitude: 093-41.067967W093-40.725683W
Elevation: 422.0 ft.403.0 ft.
Gradient: 0.2%0.7% UP
Traffic pattern: leftleft
Runway heading: 034 magnetic, 039 true214 magnetic, 219 true
Markings: basic, in fair conditionbasic, in fair condition
Obstructions: 15 ft. road, 450 ft. from runway, 16:1 slope to clear23 ft. tree, 300 ft. from runway, 140 ft. left of centerline, 4:1 slope to clear

Airport Ownership and Management from official FAA records

Ownership: Publicly-owned
Owner: CITY OF PARIS
PO BOX 271
PARIS, AR 72855
Phone 479-963-2450
Manager: JOHN MINDEN
P.O. BOX 654
PARIS, AR 72855
Phone 479-963-1777
CHAIRMAN AIRPORT COMMISSION.

Airport Operational Statistics

Aircraft based on the field: 6
Single engine airplanes: 5
Helicopters: 1
    
Aircraft operations: avg 63/week *
91% local general aviation
9% transient general aviation
* for 12-month period ending 31 August 2014

Additional Remarks

NUMEROUS AGRICULTURAL OPERATIONS FEB-OCT BLO 500 FT AGL.

Instrument Procedures

There are no published instrument procedures at 7M6.

Some nearby airports with instrument procedures:

7M5 - Ozark-Franklin County Airport (15 nm NW)
H35 - Clarksville Municipal Airport (16 nm NE)
32A - Danville Municipal Airport (18 nm SE)
KRUE - Russellville Regional Airport (29 nm E)
KFSM - Fort Smith Regional Airport (34 nm W)
 
Loc | Ops | Rwys | IFR | FBO | Links
Com | Nav | Svcs | Stats | Notes

AirNav Hotels Sweepstakes
 
Area around 7M6 (Paris Municipal Airport)
 
Road maps at: MapQuest Bing Google
 
Aerial photo
WARNING: Photo may not be current or correct
Aerial photo of 7M6 (Paris Municipal Airport)
Photo courtesy of the Arkansas Department of Aeronautics
Taken in the Spring of 2007

Do you have a better or more recent aerial photo of Paris Municipal Airport that you would like to share? If so, please send us your photo.

 
Sectional chart

 
Airport distance calculator
Flying to Paris Municipal Airport? Find the distance to fly.

From to 7M6

Sunrise and sunset
Times for 18-Jun-2018
 Local
(UTC-5)
 Zulu
(UTC)
Morning civil twilight05:3110:31
Sunrise06:0111:01
Sunset20:3101:31
Evening civil twilight21:0102:01

Current date and time
Zulu (UTC)  18-Jun-2018 20:41:47
Local (UTC-5)  18-Jun-2018 15:41:47
 
METAR
KRUE 
29nm E 
181953Z AUTO VRB03KT 10SM FEW080 32/22 A3004 RMK AO2 RAB02E13 SLP164 P0001 T03170217
KFSM 
34nm W 
181853Z 15009G19KT 10SM FEW048 FEW060 33/19 A3004 RMK AO2 SLP166 T03280189
KMWT 
45nm S 
181953Z AUTO 12006KT 10SM SCT055 32/21 A3003 RMK AO2 SLP153 T03220206
KRKR 
49nm W 
182015Z AUTO 16007KT 10SM BKN055 BKN080 32/18 A3001 RMK AO2
KFYV 
49nm NW 
181953Z 18013G18KT 10SM BKN060 30/20 A3007 RMK AO2 SLP167 T03000200
TAF
KFSM 
34nm W 
181933Z 1820/1918 15010G18KT P6SM BKN060 FM182200 13008KT P6SM BKN070 FM190000 15006KT P6SM SCT250 FM190700 08003KT P6SM BKN060 FM191000 07003KT P6SM OVC022 FM191700 17007KT P6SM BKN050
NOTAMs
Click for the latest NOTAMs
NOTAMs are issued by the DoD/FAA and will open in a separate window not controlled by AirNav.

 

 
 

FBO, Fuel Providers, and Aircraft Ground Support

  
 Business Name 
 
 Contact 
 
 Services / Description 
 
Fuel Prices
 
Comments
  
Paris Municipal Airport 479-963-2450
no information available

If you are affiliated with Paris Municipal Airport and would like to show here your services, contact info, web link, logo, and more, click here
100LL
SS $4.99 
 Updated 08-Jul-2015
 
   write
SS=Self service
Update Fuel Prices
 

Would you like to see your business listed on this page?

 If your business provides an interesting product or service to pilots, flight crews, aircraft, or users of the Paris Municipal Airport, you should consider listing it here.  To start the listing process, click on the button below
 
Add a business
 

Other Pages about Paris Municipal Airport

Update a link
 
Copyright © AirNav, LLC. All rights reserved. Privacy Policy  Contact